sensor_id;sensor_type;location;lat;lon;timestamp;temperature;humidity
11126;DHT22;5617;54.046;10.676;2023-05-10T00:01:51;12.30;84.20
11126;DHT22;5617;54.046;10.676;2023-05-10T00:03:59;12.30;84.30
11126;DHT22;5617;54.046;10.676;2023-05-10T00:06:07;12.30;84.50
11126;DHT22;5617;54.046;10.676;2023-05-10T00:08:16;12.30;84.70
11126;DHT22;5617;54.046;10.676;2023-05-10T00:10:24;12.30;84.70
11126;DHT22;5617;54.046;10.676;2023-05-10T00:12:40;12.30;84.70
11126;DHT22;5617;54.046;10.676;2023-05-10T00:14:47;12.30;85.00
11126;DHT22;5617;54.046;10.676;2023-05-10T00:16:55;12.30;84.90
11126;DHT22;5617;54.046;10.676;2023-05-10T00:19:03;12.30;84.90
11126;DHT22;5617;54.046;10.676;2023-05-10T00:21:15;12.30;85.00
11126;DHT22;5617;54.046;10.676;2023-05-10T00:23:24;12.30;85.00
11126;DHT22;5617;54.046;10.676;2023-05-10T00:25:32;12.30;85.00
11126;DHT22;5617;54.046;10.676;2023-05-10T00:27:40;12.30;85.10
11126;DHT22;5617;54.046;10.676;2023-05-10T00:29:48;12.30;85.20
11126;DHT22;5617;54.046;10.676;2023-05-10T00:31:55;12.30;85.20
11126;DHT22;5617;54.046;10.676;2023-05-10T00:34:03;12.30;85.30
11126;DHT22;5617;54.046;10.676;2023-05-10T00:36:11;12.30;85.30
11126;DHT22;5617;54.046;10.676;2023-05-10T00:38:20;12.30;85.50
11126;DHT22;5617;54.046;10.676;2023-05-10T00:40:29;12.20;85.60
11126;DHT22;5617;54.046;10.676;2023-05-10T00:42:37;12.20;85.80
11126;DHT22;5617;54.046;10.676;2023-05-10T00:44:45;12.20;85.70
11126;DHT22;5617;54.046;10.676;2023-05-10T00:46:53;12.20;85.70
11126;DHT22;5617;54.046;10.676;2023-05-10T00:49:01;12.20;86.00
11126;DHT22;5617;54.046;10.676;2023-05-10T00:51:09;12.20;86.20
11126;DHT22;5617;54.046;10.676;2023-05-10T00:53:17;12.20;86.30
11126;DHT22;5617;54.046;10.676;2023-05-10T00:55:24;12.20;86.50
11126;DHT22;5617;54.046;10.676;2023-05-10T00:57:33;12.10;86.70
11126;DHT22;5617;54.046;10.676;2023-05-10T00:59:41;12.10;86.80
11126;DHT22;5617;54.046;10.676;2023-05-10T01:01:49;12.10;86.80
11126;DHT22;5617;54.046;10.676;2023-05-10T01:03:58;12.10;87.10
11126;DHT22;5617;54.046;10.676;2023-05-10T01:06:07;12.00;87.20
11126;DHT22;5617;54.046;10.676;2023-05-10T01:08:16;12.10;87.20
11126;DHT22;5617;54.046;10.676;2023-05-10T01:10:23;12.00;87.30
11126;DHT22;5617;54.046;10.676;2023-05-10T01:12:32;12.00;87.40
11126;DHT22;5617;54.046;10.676;2023-05-10T01:14:40;12.00;87.30
11126;DHT22;5617;54.046;10.676;2023-05-10T01:16:49;12.00;87.50
11126;DHT22;5617;54.046;10.676;2023-05-10T01:18:57;12.00;87.60
11126;DHT22;5617;54.046;10.676;2023-05-10T01:21:19;12.00;87.80
11126;DHT22;5617;54.046;10.676;2023-05-10T01:23:53;12.00;88.00
11126;DHT22;5617;54.046;10.676;2023-05-10T01:26:33;11.90;88.20
11126;DHT22;5617;54.046;10.676;2023-05-10T01:29:07;11.90;88.30
11126;DHT22;5617;54.046;10.676;2023-05-10T01:31:28;11.90;88.30
11126;DHT22;5617;54.046;10.676;2023-05-10T01:33:44;11.90;88.40
11126;DHT22;5617;54.046;10.676;2023-05-10T01:36:01;11.90;88.70
11126;DHT22;5617;54.046;10.676;2023-05-10T01:38:18;11.90;88.60
11126;DHT22;5617;54.046;10.676;2023-05-10T01:40:32;11.90;88.70
11126;DHT22;5617;54.046;10.676;2023-05-10T01:42:47;11.90;89.00
11126;DHT22;5617;54.046;10.676;2023-05-10T01:45:00;11.90;88.90
11126;DHT22;5617;54.046;10.676;2023-05-10T01:47:11;11.90;88.80
11126;DHT22;5617;54.046;10.676;2023-05-10T01:49:25;11.90;89.00
11126;DHT22;5617;54.046;10.676;2023-05-10T01:51:38;11.90;88.90
11126;DHT22;5617;54.046;10.676;2023-05-10T01:53:58;11.90;89.00
11126;DHT22;5617;54.046;10.676;2023-05-10T01:56:07;11.90;89.20
11126;DHT22;5617;54.046;10.676;2023-05-10T01:58:20;11.90;89.30
11126;DHT22;5617;54.046;10.676;2023-05-10T02:00:28;11.90;89.70
11126;DHT22;5617;54.046;10.676;2023-05-10T02:02:38;11.80;90.00
11126;DHT22;5617;54.046;10.676;2023-05-10T02:04:49;11.80;89.90
11126;DHT22;5617;54.046;10.676;2023-05-10T02:06:57;11.80;89.90
11126;DHT22;5617;54.046;10.676;2023-05-10T02:09:05;11.80;89.90
11126;DHT22;5617;54.046;10.676;2023-05-10T02:11:14;11.80;90.00
11126;DHT22;5617;54.046;10.676;2023-05-10T02:13:23;11.70;90.10
11126;DHT22;5617;54.046;10.676;2023-05-10T02:15:32;11.70;90.10
11126;DHT22;5617;54.046;10.676;2023-05-10T02:17:42;11.70;90.10
11126;DHT22;5617;54.046;10.676;2023-05-10T02:19:53;11.70;90.30
11126;DHT22;5617;54.046;10.676;2023-05-10T02:22:03;11.70;90.30
11126;DHT22;5617;54.046;10.676;2023-05-10T02:24:11;11.60;90.30
11126;DHT22;5617;54.046;10.676;2023-05-10T02:26:21;11.60;90.30
11126;DHT22;5617;54.046;10.676;2023-05-10T02:28:32;11.60;90.50
11126;DHT22;5617;54.046;10.676;2023-05-10T02:30:47;11.60;90.50
11126;DHT22;5617;54.046;10.676;2023-05-10T02:32:56;11.50;90.50
11126;DHT22;5617;54.046;10.676;2023-05-10T02:35:08;11.50;90.50
11126;DHT22;5617;54.046;10.676;2023-05-10T02:37:18;11.50;90.60
11126;DHT22;5617;54.046;10.676;2023-05-10T02:39:26;11.40;90.70
11126;DHT22;5617;54.046;10.676;2023-05-10T02:41:36;11.40;90.70
11126;DHT22;5617;54.046;10.676;2023-05-10T02:43:46;11.40;90.90
11126;DHT22;5617;54.046;10.676;2023-05-10T02:45:54;11.30;90.90
11126;DHT22;5617;54.046;10.676;2023-05-10T02:48:02;11.30;90.90
11126;DHT22;5617;54.046;10.676;2023-05-10T02:50:11;11.30;91.00
11126;DHT22;5617;54.046;10.676;2023-05-10T02:52:25;11.30;90.90
11126;DHT22;5617;54.046;10.676;2023-05-10T02:54:39;11.30;91.00
11126;DHT22;5617;54.046;10.676;2023-05-10T02:56:56;11.20;91.00
11126;DHT22;5617;54.046;10.676;2023-05-10T02:59:05;11.20;91.00
11126;DHT22;5617;54.046;10.676;2023-05-10T03:01:12;11.20;91.00
11126;DHT22;5617;54.046;10.676;2023-05-10T03:03:20;11.20;91.00
11126;DHT22;5617;54.046;10.676;2023-05-10T03:05:30;11.20;91.00
11126;DHT22;5617;54.046;10.676;2023-05-10T03:07:38;11.20;91.10
11126;DHT22;5617;54.046;10.676;2023-05-10T03:09:46;11.20;91.10
11126;DHT22;5617;54.046;10.676;2023-05-10T03:11:59;11.30;91.10
11126;DHT22;5617;54.046;10.676;2023-05-10T03:14:13;11.30;91.10
11126;DHT22;5617;54.046;10.676;2023-05-10T03:16:27;11.20;91.20
11126;DHT22;5617;54.046;10.676;2023-05-10T03:18:42;11.20;91.20
11126;DHT22;5617;54.046;10.676;2023-05-10T03:20:57;11.20;91.20
11126;DHT22;5617;54.046;10.676;2023-05-10T03:23:12;11.20;91.30
11126;DHT22;5617;54.046;10.676;2023-05-10T03:25:21;11.20;91.20
11126;DHT22;5617;54.046;10.676;2023-05-10T03:27:30;11.20;91.20
11126;DHT22;5617;54.046;10.676;2023-05-10T03:29:39;11.20;91.40
11126;DHT22;5617;54.046;10.676;2023-05-10T03:31:46;11.20;91.40
11126;DHT22;5617;54.046;10.676;2023-05-10T03:33:54;11.20;91.30
11126;DHT22;5617;54.046;10.676;2023-05-10T03:36:04;11.20;91.30
11126;DHT22;5617;54.046;10.676;2023-05-10T03:38:15;11.20;91.40
11126;DHT22;5617;54.046;10.676;2023-05-10T03:40:23;11.20;91.40
11126;DHT22;5617;54.046;10.676;2023-05-10T03:42:31;11.20;91.40
11126;DHT22;5617;54.046;10.676;2023-05-10T03:44:39;11.20;91.30
11126;DHT22;5617;54.046;10.676;2023-05-10T03:46:47;11.20;91.40
11126;DHT22;5617;54.046;10.676;2023-05-10T03:48:55;11.20;91.40
11126;DHT22;5617;54.046;10.676;2023-05-10T03:51:04;11.20;91.50
11126;DHT22;5617;54.046;10.676;2023-05-10T03:53:14;11.20;91.60
11126;DHT22;5617;54.046;10.676;2023-05-10T03:55:21;11.20;91.50
11126;DHT22;5617;54.046;10.676;2023-05-10T03:57:29;11.20;91.50
11126;DHT22;5617;54.046;10.676;2023-05-10T03:59:39;11.20;91.60
11126;DHT22;5617;54.046;10.676;2023-05-10T04:01:47;11.10;91.60
11126;DHT22;5617;54.046;10.676;2023-05-10T04:03:56;11.20;91.80
11126;DHT22;5617;54.046;10.676;2023-05-10T04:06:06;11.20;91.70
11126;DHT22;5617;54.046;10.676;2023-05-10T04:08:15;11.20;91.70
11126;DHT22;5617;54.046;10.676;2023-05-10T04:10:23;11.20;91.80
11126;DHT22;5617;54.046;10.676;2023-05-10T04:12:30;11.20;91.80
11126;DHT22;5617;54.046;10.676;2023-05-10T04:14:38;11.20;91.90
11126;DHT22;5617;54.046;10.676;2023-05-10T04:16:46;11.20;91.80
11126;DHT22;5617;54.046;10.676;2023-05-10T04:18:53;11.20;91.90
11126;DHT22;5617;54.046;10.676;2023-05-10T04:21:01;11.30;92.00
11126;DHT22;5617;54.046;10.676;2023-05-10T04:23:10;11.30;92.00
11126;DHT22;5617;54.046;10.676;2023-05-10T04:25:18;11.30;92.00
11126;DHT22;5617;54.046;10.676;2023-05-10T04:27:25;11.40;92.00
11126;DHT22;5617;54.046;10.676;2023-05-10T04:29:33;11.40;92.00
11126;DHT22;5617;54.046;10.676;2023-05-10T04:31:41;11.50;92.10
11126;DHT22;5617;54.046;10.676;2023-05-10T04:33:48;11.60;92.10
11126;DHT22;5617;54.046;10.676;2023-05-10T04:35:56;11.80;92.10
11126;DHT22;5617;54.046;10.676;2023-05-10T04:38:04;12.10;92.20
11126;DHT22;5617;54.046;10.676;2023-05-10T04:40:13;12.50;92.10
11126;DHT22;5617;54.046;10.676;2023-05-10T04:42:21;12.90;91.90
11126;DHT22;5617;54.046;10.676;2023-05-10T04:44:29;13.30;91.60
11126;DHT22;5617;54.046;10.676;2023-05-10T04:46:36;13.60;91.40
11126;DHT22;5617;54.046;10.676;2023-05-10T04:48:44;13.70;91.00
11126;DHT22;5617;54.046;10.676;2023-05-10T04:50:52;13.70;90.80
11126;DHT22;5617;54.046;10.676;2023-05-10T04:52:59;13.80;90.80
11126;DHT22;5617;54.046;10.676;2023-05-10T04:55:08;13.70;90.80
11126;DHT22;5617;54.046;10.676;2023-05-10T04:57:17;13.80;90.90
11126;DHT22;5617;54.046;10.676;2023-05-10T04:59:25;13.70;90.90
11126;DHT22;5617;54.046;10.676;2023-05-10T05:01:33;13.80;91.00
11126;DHT22;5617;54.046;10.676;2023-05-10T05:03:40;13.70;90.70
11126;DHT22;5617;54.046;10.676;2023-05-10T05:05:48;13.70;90.50
11126;DHT22;5617;54.046;10.676;2023-05-10T05:07:56;13.70;90.30
11126;DHT22;5617;54.046;10.676;2023-05-10T05:10:04;13.70;90.30
11126;DHT22;5617;54.046;10.676;2023-05-10T05:12:12;13.80;90.20
11126;DHT22;5617;54.046;10.676;2023-05-10T05:14:21;13.70;90.20
11126;DHT22;5617;54.046;10.676;2023-05-10T05:16:31;13.70;90.10
11126;DHT22;5617;54.046;10.676;2023-05-10T05:18:39;13.70;90.00
11126;DHT22;5617;54.046;10.676;2023-05-10T05:20:46;13.70;89.80
11126;DHT22;5617;54.046;10.676;2023-05-10T05:22:54;13.70;89.80
11126;DHT22;5617;54.046;10.676;2023-05-10T05:25:05;13.80;89.70
11126;DHT22;5617;54.046;10.676;2023-05-10T05:27:13;13.90;89.70
11126;DHT22;5617;54.046;10.676;2023-05-10T05:29:21;13.80;89.30
11126;DHT22;5617;54.046;10.676;2023-05-10T05:31:29;13.80;89.10
11126;DHT22;5617;54.046;10.676;2023-05-10T05:33:37;13.80;89.00
11126;DHT22;5617;54.046;10.676;2023-05-10T05:35:44;13.80;88.70
11126;DHT22;5617;54.046;10.676;2023-05-10T05:37:56;13.80;88.70
11126;DHT22;5617;54.046;10.676;2023-05-10T05:40:05;13.80;88.70
11126;DHT22;5617;54.046;10.676;2023-05-10T05:42:13;13.80;88.80
11126;DHT22;5617;54.046;10.676;2023-05-10T05:44:24;13.90;88.60
11126;DHT22;5617;54.046;10.676;2023-05-10T05:46:32;13.90;88.60
11126;DHT22;5617;54.046;10.676;2023-05-10T05:48:39;13.90;88.70
11126;DHT22;5617;54.046;10.676;2023-05-10T05:50:47;14.00;88.60
11126;DHT22;5617;54.046;10.676;2023-05-10T05:52:57;14.00;88.60
11126;DHT22;5617;54.046;10.676;2023-05-10T05:55:05;14.00;88.60
11126;DHT22;5617;54.046;10.676;2023-05-10T05:57:12;14.10;88.60
11126;DHT22;5617;54.046;10.676;2023-05-10T05:59:20;14.10;88.50
11126;DHT22;5617;54.046;10.676;2023-05-10T06:01:29;14.10;88.30
11126;DHT22;5617;54.046;10.676;2023-05-10T06:03:36;14.10;88.30
11126;DHT22;5617;54.046;10.676;2023-05-10T06:05:44;14.20;88.20
11126;DHT22;5617;54.046;10.676;2023-05-10T06:07:52;14.20;88.10
11126;DHT22;5617;54.046;10.676;2023-05-10T06:10:01;14.30;88.00
11126;DHT22;5617;54.046;10.676;2023-05-10T06:12:09;14.30;87.80
11126;DHT22;5617;54.046;10.676;2023-05-10T06:14:20;14.40;87.70
11126;DHT22;5617;54.046;10.676;2023-05-10T06:16:29;14.50;87.70
11126;DHT22;5617;54.046;10.676;2023-05-10T06:18:37;14.60;87.70
11126;DHT22;5617;54.046;10.676;2023-05-10T06:20:44;14.60;87.60
11126;DHT22;5617;54.046;10.676;2023-05-10T06:22:52;14.70;87.50
11126;DHT22;5617;54.046;10.676;2023-05-10T06:24:59;14.80;87.40
11126;DHT22;5617;54.046;10.676;2023-05-10T06:27:08;14.90;87.30
11126;DHT22;5617;54.046;10.676;2023-05-10T06:29:15;15.10;87.30
11126;DHT22;5617;54.046;10.676;2023-05-10T06:31:23;15.20;87.10
11126;DHT22;5617;54.046;10.676;2023-05-10T06:33:33;15.40;86.80
11126;DHT22;5617;54.046;10.676;2023-05-10T06:35:40;15.50;86.50
11126;DHT22;5617;54.046;10.676;2023-05-10T06:37:48;15.70;86.30
11126;DHT22;5617;54.046;10.676;2023-05-10T06:39:55;15.70;86.60
11126;DHT22;5617;54.046;10.676;2023-05-10T06:42:03;15.80;85.90
11126;DHT22;5617;54.046;10.676;2023-05-10T06:44:11;15.80;85.70
11126;DHT22;5617;54.046;10.676;2023-05-10T06:46:19;15.90;85.40
11126;DHT22;5617;54.046;10.676;2023-05-10T06:48:27;15.90;85.10
11126;DHT22;5617;54.046;10.676;2023-05-10T06:50:36;16.00;85.10
11126;DHT22;5617;54.046;10.676;2023-05-10T06:52:43;16.20;84.70
11126;DHT22;5617;54.046;10.676;2023-05-10T06:54:51;16.20;84.20
11126;DHT22;5617;54.046;10.676;2023-05-10T06:56:58;16.40;84.30
11126;DHT22;5617;54.046;10.676;2023-05-10T06:59:10;16.40;83.90
11126;DHT22;5617;54.046;10.676;2023-05-10T07:01:19;16.60;83.60
11126;DHT22;5617;54.046;10.676;2023-05-10T07:03:27;16.60;83.30
11126;DHT22;5617;54.046;10.676;2023-05-10T07:05:43;16.70;82.90
11126;DHT22;5617;54.046;10.676;2023-05-10T07:07:50;16.70;82.60
11126;DHT22;5617;54.046;10.676;2023-05-10T07:09:58;16.80;82.60
11126;DHT22;5617;54.046;10.676;2023-05-10T07:12:06;16.90;82.70
11126;DHT22;5617;54.046;10.676;2023-05-10T07:14:18;17.00;82.30
11126;DHT22;5617;54.046;10.676;2023-05-10T07:16:25;17.10;82.10
11126;DHT22;5617;54.046;10.676;2023-05-10T07:18:33;17.20;81.60
11126;DHT22;5617;54.046;10.676;2023-05-10T07:20:42;17.20;81.40
11126;DHT22;5617;54.046;10.676;2023-05-10T07:22:50;17.20;81.20
11126;DHT22;5617;54.046;10.676;2023-05-10T07:24:57;17.20;81.50
11126;DHT22;5617;54.046;10.676;2023-05-10T07:27:05;17.30;81.40
11126;DHT22;5617;54.046;10.676;2023-05-10T07:29:13;17.30;81.00
11126;DHT22;5617;54.046;10.676;2023-05-10T07:31:20;17.30;81.00
11126;DHT22;5617;54.046;10.676;2023-05-10T07:33:28;17.40;81.20
11126;DHT22;5617;54.046;10.676;2023-05-10T07:35:36;17.40;80.50
11126;DHT22;5617;54.046;10.676;2023-05-10T07:37:45;17.40;79.60
11126;DHT22;5617;54.046;10.676;2023-05-10T07:39:52;17.50;79.70
11126;DHT22;5617;54.046;10.676;2023-05-10T07:42:00;17.70;79.60
11126;DHT22;5617;54.046;10.676;2023-05-10T07:44:09;17.80;79.60
11126;DHT22;5617;54.046;10.676;2023-05-10T07:46:16;17.80;79.40
11126;DHT22;5617;54.046;10.676;2023-05-10T07:48:26;18.00;79.40
11126;DHT22;5617;54.046;10.676;2023-05-10T07:50:33;18.20;79.00
11126;DHT22;5617;54.046;10.676;2023-05-10T07:52:45;18.30;78.80
11126;DHT22;5617;54.046;10.676;2023-05-10T07:54:53;18.40;78.50
11126;DHT22;5617;54.046;10.676;2023-05-10T07:57:01;18.50;78.40
11126;DHT22;5617;54.046;10.676;2023-05-10T07:59:08;18.60;78.10
11126;DHT22;5617;54.046;10.676;2023-05-10T08:01:19;18.70;77.90
11126;DHT22;5617;54.046;10.676;2023-05-10T08:03:27;18.80;76.90
11126;DHT22;5617;54.046;10.676;2023-05-10T08:05:34;18.70;76.30
11126;DHT22;5617;54.046;10.676;2023-05-10T08:07:42;18.70;76.00
11126;DHT22;5617;54.046;10.676;2023-05-10T08:09:51;18.70;76.00
11126;DHT22;5617;54.046;10.676;2023-05-10T08:11:59;18.60;76.00
11126;DHT22;5617;54.046;10.676;2023-05-10T08:14:06;18.70;76.20
11126;DHT22;5617;54.046;10.676;2023-05-10T08:16:14;18.90;76.00
11126;DHT22;5617;54.046;10.676;2023-05-10T08:18:22;19.00;76.00
11126;DHT22;5617;54.046;10.676;2023-05-10T08:20:29;19.20;76.00
11126;DHT22;5617;54.046;10.676;2023-05-10T08:22:37;19.40;75.70
11126;DHT22;5617;54.046;10.676;2023-05-10T08:24:44;19.60;75.60
11126;DHT22;5617;54.046;10.676;2023-05-10T08:26:53;19.60;75.50
11126;DHT22;5617;54.046;10.676;2023-05-10T08:29:01;19.50;74.70
11126;DHT22;5617;54.046;10.676;2023-05-10T08:31:09;19.50;74.50
11126;DHT22;5617;54.046;10.676;2023-05-10T08:33:17;19.60;74.90
11126;DHT22;5617;54.046;10.676;2023-05-10T08:35:25;19.60;74.50
11126;DHT22;5617;54.046;10.676;2023-05-10T08:37:32;19.40;74.30
11126;DHT22;5617;54.046;10.676;2023-05-10T08:39:40;19.50;75.10
11126;DHT22;5617;54.046;10.676;2023-05-10T08:41:48;19.60;75.10
11126;DHT22;5617;54.046;10.676;2023-05-10T08:44:04;19.70;74.30
11126;DHT22;5617;54.046;10.676;2023-05-10T08:46:15;19.70;74.40
11126;DHT22;5617;54.046;10.676;2023-05-10T08:48:24;19.80;74.00
11126;DHT22;5617;54.046;10.676;2023-05-10T08:50:33;20.00;73.90
11126;DHT22;5617;54.046;10.676;2023-05-10T08:52:41;20.00;73.70
11126;DHT22;5617;54.046;10.676;2023-05-10T08:54:49;20.20;73.40
11126;DHT22;5617;54.046;10.676;2023-05-10T08:56:57;20.20;73.20
11126;DHT22;5617;54.046;10.676;2023-05-10T08:59:06;20.40;73.20
11126;DHT22;5617;54.046;10.676;2023-05-10T09:01:14;20.60;72.90
11126;DHT22;5617;54.046;10.676;2023-05-10T09:03:23;20.70;72.70
11126;DHT22;5617;54.046;10.676;2023-05-10T09:05:32;20.70;73.30
11126;DHT22;5617;54.046;10.676;2023-05-10T09:07:40;20.80;72.80
11126;DHT22;5617;54.046;10.676;2023-05-10T09:09:48;20.90;72.40
11126;DHT22;5617;54.046;10.676;2023-05-10T09:11:56;21.00;72.10
11126;DHT22;5617;54.046;10.676;2023-05-10T09:14:05;21.00;71.70
11126;DHT22;5617;54.046;10.676;2023-05-10T09:16:13;21.20;72.10
11126;DHT22;5617;54.046;10.676;2023-05-10T09:18:29;21.30;71.80
11126;DHT22;5617;54.046;10.676;2023-05-10T09:20:37;21.20;71.10
11126;DHT22;5617;54.046;10.676;2023-05-10T09:22:44;21.20;71.10
11126;DHT22;5617;54.046;10.676;2023-05-10T09:25:04;21.30;71.30
11126;DHT22;5617;54.046;10.676;2023-05-10T09:27:12;21.20;70.80
11126;DHT22;5617;54.046;10.676;2023-05-10T09:29:21;21.20;70.80
11126;DHT22;5617;54.046;10.676;2023-05-10T09:31:46;21.30;70.60
11126;DHT22;5617;54.046;10.676;2023-05-10T09:33:54;21.50;70.10
11126;DHT22;5617;54.046;10.676;2023-05-10T09:36:06;21.40;69.90
11126;DHT22;5617;54.046;10.676;2023-05-10T09:38:14;21.50;69.80
11126;DHT22;5617;54.046;10.676;2023-05-10T09:40:24;21.80;70.00
11126;DHT22;5617;54.046;10.676;2023-05-10T09:42:31;21.90;69.80
11126;DHT22;5617;54.046;10.676;2023-05-10T09:44:42;22.00;69.80
11126;DHT22;5617;54.046;10.676;2023-05-10T09:46:50;22.10;69.60
11126;DHT22;5617;54.046;10.676;2023-05-10T09:48:59;22.20;69.10
11126;DHT22;5617;54.046;10.676;2023-05-10T09:51:07;22.10;69.30
11126;DHT22;5617;54.046;10.676;2023-05-10T09:53:15;22.30;69.00
11126;DHT22;5617;54.046;10.676;2023-05-10T09:55:24;22.20;68.60
11126;DHT22;5617;54.046;10.676;2023-05-10T09:57:32;22.30;68.20
11126;DHT22;5617;54.046;10.676;2023-05-10T09:59:43;22.30;68.10
11126;DHT22;5617;54.046;10.676;2023-05-10T10:01:51;22.20;68.30
11126;DHT22;5617;54.046;10.676;2023-05-10T10:04:02;22.40;68.90
11126;DHT22;5617;54.046;10.676;2023-05-10T10:06:10;22.50;67.70
11126;DHT22;5617;54.046;10.676;2023-05-10T10:08:33;22.40;67.90
11126;DHT22;5617;54.046;10.676;2023-05-10T10:10:42;22.30;68.10
11126;DHT22;5617;54.046;10.676;2023-05-10T10:12:52;22.20;68.60
11126;DHT22;5617;54.046;10.676;2023-05-10T10:15:01;22.20;68.60
11126;DHT22;5617;54.046;10.676;2023-05-10T10:17:12;22.20;68.90
11126;DHT22;5617;54.046;10.676;2023-05-10T10:19:20;22.20;68.70
11126;DHT22;5617;54.046;10.676;2023-05-10T10:21:28;22.30;69.10
11126;DHT22;5617;54.046;10.676;2023-05-10T10:23:37;22.40;69.00
11126;DHT22;5617;54.046;10.676;2023-05-10T10:25:45;22.50;68.30
11126;DHT22;5617;54.046;10.676;2023-05-10T10:28:03;22.50;68.40
11126;DHT22;5617;54.046;10.676;2023-05-10T10:30:24;22.40;68.30
11126;DHT22;5617;54.046;10.676;2023-05-10T10:32:42;22.50;69.10
11126;DHT22;5617;54.046;10.676;2023-05-10T10:34:54;22.50;68.60
11126;DHT22;5617;54.046;10.676;2023-05-10T10:37:04;22.40;68.30
11126;DHT22;5617;54.046;10.676;2023-05-10T10:39:13;22.20;67.90
11126;DHT22;5617;54.046;10.676;2023-05-10T10:41:28;22.20;67.50
11126;DHT22;5617;54.046;10.676;2023-05-10T10:43:36;22.10;67.10
11126;DHT22;5617;54.046;10.676;2023-05-10T10:45:48;22.20;67.50
11126;DHT22;5617;54.046;10.676;2023-05-10T10:48:22;22.10;67.30
11126;DHT22;5617;54.046;10.676;2023-05-10T10:50:30;22.00;67.60
11126;DHT22;5617;54.046;10.676;2023-05-10T10:52:38;21.80;67.90
11126;DHT22;5617;54.046;10.676;2023-05-10T10:54:54;21.90;68.00
11126;DHT22;5617;54.046;10.676;2023-05-10T10:57:11;21.90;68.80
11126;DHT22;5617;54.046;10.676;2023-05-10T10:59:26;22.10;68.10
11126;DHT22;5617;54.046;10.676;2023-05-10T11:01:35;22.00;67.90
11126;DHT22;5617;54.046;10.676;2023-05-10T11:04:17;21.90;68.00
11126;DHT22;5617;54.046;10.676;2023-05-10T11:06:29;22.00;68.20
11126;DHT22;5617;54.046;10.676;2023-05-10T11:08:42;22.10;68.20
11126;DHT22;5617;54.046;10.676;2023-05-10T11:11:04;22.30;68.00
11126;DHT22;5617;54.046;10.676;2023-05-10T11:13:14;22.40;67.40
11126;DHT22;5617;54.046;10.676;2023-05-10T11:15:28;22.40;67.30
11126;DHT22;5617;54.046;10.676;2023-05-10T11:17:38;22.40;68.00
11126;DHT22;5617;54.046;10.676;2023-05-10T11:20:06;22.50;67.70
11126;DHT22;5617;54.046;10.676;2023-05-10T11:22:14;22.50;67.60
11126;DHT22;5617;54.046;10.676;2023-05-10T11:24:27;22.40;67.80
11126;DHT22;5617;54.046;10.676;2023-05-10T11:26:35;22.40;68.10
11126;DHT22;5617;54.046;10.676;2023-05-10T11:28:44;22.50;68.30
11126;DHT22;5617;54.046;10.676;2023-05-10T11:30:52;22.40;68.40
11126;DHT22;5617;54.046;10.676;2023-05-10T11:33:01;22.40;68.50
11126;DHT22;5617;54.046;10.676;2023-05-10T11:35:09;22.30;68.30
11126;DHT22;5617;54.046;10.676;2023-05-10T11:37:18;22.30;68.60
11126;DHT22;5617;54.046;10.676;2023-05-10T11:39:26;22.30;69.00
11126;DHT22;5617;54.046;10.676;2023-05-10T11:41:34;22.20;69.20
11126;DHT22;5617;54.046;10.676;2023-05-10T11:43:42;22.40;69.30
11126;DHT22;5617;54.046;10.676;2023-05-10T11:45:49;22.50;69.40
11126;DHT22;5617;54.046;10.676;2023-05-10T11:47:58;22.70;68.90
11126;DHT22;5617;54.046;10.676;2023-05-10T11:50:08;22.80;67.60
11126;DHT22;5617;54.046;10.676;2023-05-10T11:52:18;22.50;67.30
11126;DHT22;5617;54.046;10.676;2023-05-10T11:54:26;22.30;67.60
11126;DHT22;5617;54.046;10.676;2023-05-10T11:56:34;22.20;68.40
11126;DHT22;5617;54.046;10.676;2023-05-10T11:58:41;22.00;68.70
11126;DHT22;5617;54.046;10.676;2023-05-10T12:00:49;21.90;69.00
11126;DHT22;5617;54.046;10.676;2023-05-10T12:03:01;21.70;69.60
11126;DHT22;5617;54.046;10.676;2023-05-10T12:05:11;21.60;70.40
11126;DHT22;5617;54.046;10.676;2023-05-10T12:07:18;21.50;71.70
11126;DHT22;5617;54.046;10.676;2023-05-10T12:09:26;21.40;71.40
11126;DHT22;5617;54.046;10.676;2023-05-10T12:11:55;21.40;71.90
11126;DHT22;5617;54.046;10.676;2023-05-10T12:14:04;21.40;72.40
11126;DHT22;5617;54.046;10.676;2023-05-10T12:16:13;21.40;71.80
11126;DHT22;5617;54.046;10.676;2023-05-10T12:18:23;21.40;72.00
11126;DHT22;5617;54.046;10.676;2023-05-10T12:20:32;21.20;71.70
11126;DHT22;5617;54.046;10.676;2023-05-10T12:22:40;21.10;72.30
11126;DHT22;5617;54.046;10.676;2023-05-10T12:24:48;21.00;73.30
11126;DHT22;5617;54.046;10.676;2023-05-10T12:26:57;20.90;73.90
11126;DHT22;5617;54.046;10.676;2023-05-10T12:29:15;20.80;74.20
11126;DHT22;5617;54.046;10.676;2023-05-10T12:31:23;20.60;74.40
11126;DHT22;5617;54.046;10.676;2023-05-10T12:33:35;20.60;74.80
11126;DHT22;5617;54.046;10.676;2023-05-10T12:35:47;20.50;75.10
11126;DHT22;5617;54.046;10.676;2023-05-10T12:37:55;20.40;75.30
11126;DHT22;5617;54.046;10.676;2023-05-10T12:40:03;20.30;75.50
11126;DHT22;5617;54.046;10.676;2023-05-10T12:42:11;20.20;75.70
11126;DHT22;5617;54.046;10.676;2023-05-10T12:44:19;20.10;76.20
11126;DHT22;5617;54.046;10.676;2023-05-10T12:46:26;20.00;76.70
11126;DHT22;5617;54.046;10.676;2023-05-10T12:48:35;19.90;77.60
11126;DHT22;5617;54.046;10.676;2023-05-10T12:50:43;19.80;78.40
11126;DHT22;5617;54.046;10.676;2023-05-10T12:52:52;19.80;79.10
11126;DHT22;5617;54.046;10.676;2023-05-10T12:55:00;19.60;79.90
11126;DHT22;5617;54.046;10.676;2023-05-10T12:57:09;19.60;80.30
11126;DHT22;5617;54.046;10.676;2023-05-10T12:59:17;19.50;80.40
11126;DHT22;5617;54.046;10.676;2023-05-10T13:01:24;19.50;80.70
11126;DHT22;5617;54.046;10.676;2023-05-10T13:03:32;19.50;81.10
11126;DHT22;5617;54.046;10.676;2023-05-10T13:05:39;19.30;81.90
11126;DHT22;5617;54.046;10.676;2023-05-10T13:07:47;19.20;82.70
11126;DHT22;5617;54.046;10.676;2023-05-10T13:09:56;19.00;83.40
11126;DHT22;5617;54.046;10.676;2023-05-10T13:12:04;18.80;84.40
11126;DHT22;5617;54.046;10.676;2023-05-10T13:14:16;18.70;85.20
11126;DHT22;5617;54.046;10.676;2023-05-10T13:16:25;18.40;86.90
11126;DHT22;5617;54.046;10.676;2023-05-10T13:18:33;18.30;87.50
11126;DHT22;5617;54.046;10.676;2023-05-10T13:20:41;18.10;88.80
11126;DHT22;5617;54.046;10.676;2023-05-10T13:22:50;17.90;89.50
11126;DHT22;5617;54.046;10.676;2023-05-10T13:24:59;17.80;90.00
11126;DHT22;5617;54.046;10.676;2023-05-10T13:27:07;17.70;90.40
11126;DHT22;5617;54.046;10.676;2023-05-10T13:29:14;17.60;90.60
11126;DHT22;5617;54.046;10.676;2023-05-10T13:31:24;17.60;90.70
11126;DHT22;5617;54.046;10.676;2023-05-10T13:33:32;17.60;90.90
11126;DHT22;5617;54.046;10.676;2023-05-10T13:35:39;17.40;91.30
11126;DHT22;5617;54.046;10.676;2023-05-10T13:37:47;17.40;91.40
11126;DHT22;5617;54.046;10.676;2023-05-10T13:39:55;17.30;91.60